sensor_id;sensor_type;location;lat;lon;timestamp;temperature;humidity
8862;DHT22;4799;50.996;4.754;2023-07-13T00:00:03;17.00;99.90
8862;DHT22;4799;50.996;4.754;2023-07-13T00:02:34;17.00;99.90
8862;DHT22;4799;50.996;4.754;2023-07-13T00:05:00;16.90;99.90
8862;DHT22;4799;50.996;4.754;2023-07-13T00:07:25;16.90;99.90
8862;DHT22;4799;50.996;4.754;2023-07-13T00:09:51;16.90;99.90
8862;DHT22;4799;50.996;4.754;2023-07-13T00:12:34;16.90;99.90
8862;DHT22;4799;50.996;4.754;2023-07-13T00:15:02;16.80;99.90
8862;DHT22;4799;50.996;4.754;2023-07-13T00:17:29;16.80;99.90
8862;DHT22;4799;50.996;4.754;2023-07-13T00:19:56;16.80;99.90
8862;DHT22;4799;50.996;4.754;2023-07-13T00:22:22;16.70;99.90
8862;DHT22;4799;50.996;4.754;2023-07-13T00:24:52;16.70;99.90
8862;DHT22;4799;50.996;4.754;2023-07-13T00:27:18;16.70;99.90
8862;DHT22;4799;50.996;4.754;2023-07-13T00:29:44;16.70;99.90
8862;DHT22;4799;50.996;4.754;2023-07-13T00:32:10;16.60;99.90
8862;DHT22;4799;50.996;4.754;2023-07-13T00:34:37;16.60;99.90
8862;DHT22;4799;50.996;4.754;2023-07-13T00:37:05;16.50;99.90
8862;DHT22;4799;50.996;4.754;2023-07-13T00:39:32;16.60;99.90
8862;DHT22;4799;50.996;4.754;2023-07-13T00:41:59;16.50;99.90
8862;DHT22;4799;50.996;4.754;2023-07-13T00:44:24;16.50;99.90
8862;DHT22;4799;50.996;4.754;2023-07-13T00:46:50;16.40;99.90
8862;DHT22;4799;50.996;4.754;2023-07-13T00:49:19;16.40;99.90
8862;DHT22;4799;50.996;4.754;2023-07-13T00:51:53;16.40;99.90
8862;DHT22;4799;50.996;4.754;2023-07-13T00:54:24;16.40;99.90
8862;DHT22;4799;50.996;4.754;2023-07-13T00:56:55;16.30;99.90
8862;DHT22;4799;50.996;4.754;2023-07-13T00:59:22;16.30;99.90
8862;DHT22;4799;50.996;4.754;2023-07-13T01:01:48;16.30;99.90
8862;DHT22;4799;50.996;4.754;2023-07-13T01:04:16;16.20;99.90
8862;DHT22;4799;50.996;4.754;2023-07-13T01:06:42;16.20;99.90
8862;DHT22;4799;50.996;4.754;2023-07-13T01:09:10;16.20;99.90
8862;DHT22;4799;50.996;4.754;2023-07-13T01:11:36;16.10;99.90
8862;DHT22;4799;50.996;4.754;2023-07-13T01:14:03;16.10;99.90
8862;DHT22;4799;50.996;4.754;2023-07-13T01:16:34;16.10;99.90
8862;DHT22;4799;50.996;4.754;2023-07-13T01:19:00;16.10;99.90
8862;DHT22;4799;50.996;4.754;2023-07-13T01:21:32;16.00;99.90
8862;DHT22;4799;50.996;4.754;2023-07-13T01:23:58;16.00;99.90
8862;DHT22;4799;50.996;4.754;2023-07-13T01:26:24;16.00;99.90
8862;DHT22;4799;50.996;4.754;2023-07-13T01:28:49;15.90;99.90
8862;DHT22;4799;50.996;4.754;2023-07-13T01:31:15;15.90;99.90
8862;DHT22;4799;50.996;4.754;2023-07-13T01:33:41;15.90;99.90
8862;DHT22;4799;50.996;4.754;2023-07-13T01:36:07;15.90;99.90
8862;DHT22;4799;50.996;4.754;2023-07-13T01:38:35;15.90;99.90
8862;DHT22;4799;50.996;4.754;2023-07-13T01:41:03;15.90;99.90
8862;DHT22;4799;50.996;4.754;2023-07-13T01:43:29;16.00;99.90
8862;DHT22;4799;50.996;4.754;2023-07-13T01:45:55;16.10;99.90
8862;DHT22;4799;50.996;4.754;2023-07-13T01:48:21;16.10;99.90
8862;DHT22;4799;50.996;4.754;2023-07-13T01:50:47;16.20;99.90
8862;DHT22;4799;50.996;4.754;2023-07-13T01:53:13;16.20;99.90
8862;DHT22;4799;50.996;4.754;2023-07-13T01:55:39;16.20;99.90
8862;DHT22;4799;50.996;4.754;2023-07-13T01:58:05;16.30;99.90
8862;DHT22;4799;50.996;4.754;2023-07-13T02:00:33;16.30;99.90
8862;DHT22;4799;50.996;4.754;2023-07-13T02:02:58;16.30;99.90
8862;DHT22;4799;50.996;4.754;2023-07-13T02:05:24;16.20;99.90
8862;DHT22;4799;50.996;4.754;2023-07-13T02:07:51;16.20;99.90
8862;DHT22;4799;50.996;4.754;2023-07-13T02:10:18;16.20;99.90
8862;DHT22;4799;50.996;4.754;2023-07-13T02:12:44;16.20;99.90
8862;DHT22;4799;50.996;4.754;2023-07-13T02:15:11;16.20;99.90
8862;DHT22;4799;50.996;4.754;2023-07-13T02:17:37;16.30;99.90
8862;DHT22;4799;50.996;4.754;2023-07-13T02:20:03;16.30;99.90
8862;DHT22;4799;50.996;4.754;2023-07-13T02:22:30;16.30;99.90
8862;DHT22;4799;50.996;4.754;2023-07-13T02:24:55;16.30;99.90
8862;DHT22;4799;50.996;4.754;2023-07-13T02:27:21;16.40;99.90
8862;DHT22;4799;50.996;4.754;2023-07-13T02:29:47;16.40;99.90
8862;DHT22;4799;50.996;4.754;2023-07-13T02:32:13;16.40;99.90
8862;DHT22;4799;50.996;4.754;2023-07-13T02:34:41;16.50;99.90
8862;DHT22;4799;50.996;4.754;2023-07-13T02:37:07;16.50;99.90
8862;DHT22;4799;50.996;4.754;2023-07-13T02:39:33;16.50;99.90
8862;DHT22;4799;50.996;4.754;2023-07-13T02:41:59;16.50;99.90
8862;DHT22;4799;50.996;4.754;2023-07-13T02:44:26;16.60;99.90
8862;DHT22;4799;50.996;4.754;2023-07-13T02:46:52;16.50;99.90
8862;DHT22;4799;50.996;4.754;2023-07-13T02:49:17;16.50;99.90
8862;DHT22;4799;50.996;4.754;2023-07-13T02:51:46;16.50;99.90
8862;DHT22;4799;50.996;4.754;2023-07-13T02:54:11;16.50;99.90
8862;DHT22;4799;50.996;4.754;2023-07-13T02:56:39;16.50;99.90
8862;DHT22;4799;50.996;4.754;2023-07-13T02:59:05;16.60;99.90
8862;DHT22;4799;50.996;4.754;2023-07-13T03:01:30;16.60;99.90
8862;DHT22;4799;50.996;4.754;2023-07-13T03:03:58;16.50;99.90
8862;DHT22;4799;50.996;4.754;2023-07-13T03:06:23;16.60;99.90
8862;DHT22;4799;50.996;4.754;2023-07-13T03:08:50;16.60;99.90
8862;DHT22;4799;50.996;4.754;2023-07-13T03:11:18;16.60;99.90
8862;DHT22;4799;50.996;4.754;2023-07-13T03:13:45;16.60;99.90
8862;DHT22;4799;50.996;4.754;2023-07-13T03:16:11;16.60;99.90
8862;DHT22;4799;50.996;4.754;2023-07-13T03:18:38;16.60;99.90
8862;DHT22;4799;50.996;4.754;2023-07-13T03:21:05;16.60;99.90
8862;DHT22;4799;50.996;4.754;2023-07-13T03:23:31;16.60;99.90
8862;DHT22;4799;50.996;4.754;2023-07-13T03:26:09;16.60;99.90
8862;DHT22;4799;50.996;4.754;2023-07-13T03:28:35;16.60;99.90
8862;DHT22;4799;50.996;4.754;2023-07-13T03:31:09;16.60;99.90
8862;DHT22;4799;50.996;4.754;2023-07-13T03:33:36;16.60;99.90
8862;DHT22;4799;50.996;4.754;2023-07-13T03:36:03;16.60;99.90
8862;DHT22;4799;50.996;4.754;2023-07-13T03:38:29;16.70;99.90
8862;DHT22;4799;50.996;4.754;2023-07-13T03:40:55;16.70;99.90
8862;DHT22;4799;50.996;4.754;2023-07-13T03:43:21;16.70;99.90
8862;DHT22;4799;50.996;4.754;2023-07-13T03:45:47;16.70;99.90
8862;DHT22;4799;50.996;4.754;2023-07-13T03:48:14;16.70;99.90
8862;DHT22;4799;50.996;4.754;2023-07-13T03:50:40;16.70;99.90
8862;DHT22;4799;50.996;4.754;2023-07-13T03:53:06;16.70;99.90
8862;DHT22;4799;50.996;4.754;2023-07-13T03:55:32;16.70;99.90
8862;DHT22;4799;50.996;4.754;2023-07-13T03:58:00;16.80;99.90
8862;DHT22;4799;50.996;4.754;2023-07-13T04:00:26;16.70;99.90
8862;DHT22;4799;50.996;4.754;2023-07-13T04:02:52;16.80;99.90
8862;DHT22;4799;50.996;4.754;2023-07-13T04:05:18;16.80;99.90
8862;DHT22;4799;50.996;4.754;2023-07-13T04:07:44;16.80;99.90
8862;DHT22;4799;50.996;4.754;2023-07-13T04:10:10;16.80;99.90
8862;DHT22;4799;50.996;4.754;2023-07-13T04:12:35;16.80;99.90
8862;DHT22;4799;50.996;4.754;2023-07-13T04:15:01;16.80;99.90
8862;DHT22;4799;50.996;4.754;2023-07-13T04:17:27;16.80;99.90
8862;DHT22;4799;50.996;4.754;2023-07-13T04:19:53;16.80;99.90
8862;DHT22;4799;50.996;4.754;2023-07-13T04:22:18;16.90;99.90
8862;DHT22;4799;50.996;4.754;2023-07-13T04:24:44;16.90;99.90
8862;DHT22;4799;50.996;4.754;2023-07-13T04:27:11;16.90;99.90
8862;DHT22;4799;50.996;4.754;2023-07-13T04:29:37;16.90;99.90
8862;DHT22;4799;50.996;4.754;2023-07-13T04:32:02;16.90;99.90
8862;DHT22;4799;50.996;4.754;2023-07-13T04:34:29;16.90;99.90
8862;DHT22;4799;50.996;4.754;2023-07-13T04:36:55;16.90;99.90
8862;DHT22;4799;50.996;4.754;2023-07-13T04:39:20;16.90;99.90
8862;DHT22;4799;50.996;4.754;2023-07-13T04:41:46;16.90;99.90
8862;DHT22;4799;50.996;4.754;2023-07-13T04:44:12;16.90;99.90
8862;DHT22;4799;50.996;4.754;2023-07-13T04:46:37;16.90;99.90
8862;DHT22;4799;50.996;4.754;2023-07-13T04:49:04;17.00;99.90
8862;DHT22;4799;50.996;4.754;2023-07-13T04:51:29;17.00;99.90
8862;DHT22;4799;50.996;4.754;2023-07-13T04:53:55;17.10;99.90
8862;DHT22;4799;50.996;4.754;2023-07-13T04:56:21;17.10;99.90
8862;DHT22;4799;50.996;4.754;2023-07-13T04:58:46;17.10;99.90
8862;DHT22;4799;50.996;4.754;2023-07-13T05:01:12;17.10;99.90
8862;DHT22;4799;50.996;4.754;2023-07-13T05:03:39;17.20;99.90
8862;DHT22;4799;50.996;4.754;2023-07-13T05:06:06;17.20;99.90
8862;DHT22;4799;50.996;4.754;2023-07-13T05:08:33;17.20;99.90
8862;DHT22;4799;50.996;4.754;2023-07-13T05:11:04;17.30;99.90
8862;DHT22;4799;50.996;4.754;2023-07-13T05:13:29;17.30;99.90
8862;DHT22;4799;50.996;4.754;2023-07-13T05:16:00;17.40;99.90
8862;DHT22;4799;50.996;4.754;2023-07-13T05:18:27;17.40;99.90
8862;DHT22;4799;50.996;4.754;2023-07-13T05:21:07;17.40;99.90
8862;DHT22;4799;50.996;4.754;2023-07-13T05:23:34;17.50;99.90
8862;DHT22;4799;50.996;4.754;2023-07-13T05:26:01;17.50;99.90
8862;DHT22;4799;50.996;4.754;2023-07-13T05:28:27;17.50;99.90
8862;DHT22;4799;50.996;4.754;2023-07-13T05:30:53;17.60;99.90
8862;DHT22;4799;50.996;4.754;2023-07-13T05:33:20;17.60;99.90
8862;DHT22;4799;50.996;4.754;2023-07-13T05:35:46;17.70;99.90
8862;DHT22;4799;50.996;4.754;2023-07-13T05:38:11;17.70;99.90
8862;DHT22;4799;50.996;4.754;2023-07-13T05:40:37;17.80;99.90
8862;DHT22;4799;50.996;4.754;2023-07-13T05:43:04;17.80;99.90
8862;DHT22;4799;50.996;4.754;2023-07-13T05:45:30;17.80;99.90
8862;DHT22;4799;50.996;4.754;2023-07-13T05:47:55;17.90;99.90
8862;DHT22;4799;50.996;4.754;2023-07-13T05:50:21;18.00;99.90
8862;DHT22;4799;50.996;4.754;2023-07-13T05:52:47;18.00;99.90
8862;DHT22;4799;50.996;4.754;2023-07-13T05:55:13;18.10;99.90
8862;DHT22;4799;50.996;4.754;2023-07-13T05:57:38;18.20;99.90
8862;DHT22;4799;50.996;4.754;2023-07-13T06:00:05;18.30;99.90
8862;DHT22;4799;50.996;4.754;2023-07-13T06:02:30;18.40;99.90
8862;DHT22;4799;50.996;4.754;2023-07-13T06:04:56;18.40;99.90
8862;DHT22;4799;50.996;4.754;2023-07-13T06:07:22;18.50;99.90
8862;DHT22;4799;50.996;4.754;2023-07-13T06:09:47;18.70;99.90
8862;DHT22;4799;50.996;4.754;2023-07-13T06:12:13;18.70;99.90
8862;DHT22;4799;50.996;4.754;2023-07-13T06:14:39;18.70;99.90
8862;DHT22;4799;50.996;4.754;2023-07-13T06:17:05;18.80;99.90
8862;DHT22;4799;50.996;4.754;2023-07-13T06:19:31;18.90;99.90
8862;DHT22;4799;50.996;4.754;2023-07-13T06:21:58;19.00;99.90
8862;DHT22;4799;50.996;4.754;2023-07-13T06:24:24;19.10;99.90
8862;DHT22;4799;50.996;4.754;2023-07-13T06:26:50;19.20;99.90
8862;DHT22;4799;50.996;4.754;2023-07-13T06:29:16;19.20;99.90
8862;DHT22;4799;50.996;4.754;2023-07-13T06:31:42;19.30;99.90
8862;DHT22;4799;50.996;4.754;2023-07-13T06:34:08;19.40;99.90
8862;DHT22;4799;50.996;4.754;2023-07-13T06:36:34;19.50;99.90
8862;DHT22;4799;50.996;4.754;2023-07-13T06:39:02;19.50;99.90
8862;DHT22;4799;50.996;4.754;2023-07-13T06:41:28;19.60;99.90
8862;DHT22;4799;50.996;4.754;2023-07-13T06:43:54;19.60;99.90
8862;DHT22;4799;50.996;4.754;2023-07-13T06:46:23;19.70;99.90
8862;DHT22;4799;50.996;4.754;2023-07-13T06:48:49;19.80;99.90
8862;DHT22;4799;50.996;4.754;2023-07-13T06:51:14;19.80;99.90
8862;DHT22;4799;50.996;4.754;2023-07-13T06:53:40;19.90;99.90
8862;DHT22;4799;50.996;4.754;2023-07-13T06:56:06;19.90;99.90
8862;DHT22;4799;50.996;4.754;2023-07-13T06:58:33;20.00;99.90
8862;DHT22;4799;50.996;4.754;2023-07-13T07:00:59;20.00;99.90
8862;DHT22;4799;50.996;4.754;2023-07-13T07:03:25;20.10;99.90
8862;DHT22;4799;50.996;4.754;2023-07-13T07:05:51;20.20;99.90
8862;DHT22;4799;50.996;4.754;2023-07-13T07:08:16;20.30;99.90
8862;DHT22;4799;50.996;4.754;2023-07-13T07:10:42;20.40;99.90
8862;DHT22;4799;50.996;4.754;2023-07-13T07:13:08;20.50;99.90
8862;DHT22;4799;50.996;4.754;2023-07-13T07:15:34;20.60;99.90
8862;DHT22;4799;50.996;4.754;2023-07-13T07:18:00;20.70;99.90
8862;DHT22;4799;50.996;4.754;2023-07-13T07:20:26;20.80;99.90
8862;DHT22;4799;50.996;4.754;2023-07-13T07:22:52;20.90;99.90
8862;DHT22;4799;50.996;4.754;2023-07-13T07:25:19;21.10;99.90
8862;DHT22;4799;50.996;4.754;2023-07-13T07:27:45;21.20;99.90
8862;DHT22;4799;50.996;4.754;2023-07-13T07:30:11;21.40;99.90
8862;DHT22;4799;50.996;4.754;2023-07-13T07:32:37;21.50;99.90
8862;DHT22;4799;50.996;4.754;2023-07-13T07:35:03;21.50;99.90
8862;DHT22;4799;50.996;4.754;2023-07-13T07:37:29;21.50;99.90
8862;DHT22;4799;50.996;4.754;2023-07-13T07:39:55;21.50;99.90
8862;DHT22;4799;50.996;4.754;2023-07-13T07:42:20;21.60;99.90
8862;DHT22;4799;50.996;4.754;2023-07-13T07:44:46;21.60;99.90
8862;DHT22;4799;50.996;4.754;2023-07-13T07:47:12;21.70;99.90
8862;DHT22;4799;50.996;4.754;2023-07-13T07:49:38;21.70;99.90
8862;DHT22;4799;50.996;4.754;2023-07-13T07:52:04;21.70;99.90
8862;DHT22;4799;50.996;4.754;2023-07-13T07:54:30;21.80;99.90
8862;DHT22;4799;50.996;4.754;2023-07-13T07:56:55;21.80;99.90
8862;DHT22;4799;50.996;4.754;2023-07-13T07:59:21;21.80;99.90
8862;DHT22;4799;50.996;4.754;2023-07-13T08:01:47;21.80;99.90
8862;DHT22;4799;50.996;4.754;2023-07-13T08:04:16;21.80;99.90
8862;DHT22;4799;50.996;4.754;2023-07-13T08:06:42;21.80;99.90
8862;DHT22;4799;50.996;4.754;2023-07-13T08:09:07;22.00;99.90
8862;DHT22;4799;50.996;4.754;2023-07-13T08:11:34;22.10;99.90
8862;DHT22;4799;50.996;4.754;2023-07-13T08:14:00;22.20;99.90
8862;DHT22;4799;50.996;4.754;2023-07-13T08:16:26;22.20;99.90
8862;DHT22;4799;50.996;4.754;2023-07-13T08:18:52;22.20;99.90
8862;DHT22;4799;50.996;4.754;2023-07-13T08:21:18;22.20;99.90
8862;DHT22;4799;50.996;4.754;2023-07-13T08:23:45;22.30;99.90
8862;DHT22;4799;50.996;4.754;2023-07-13T08:26:11;22.40;99.90
8862;DHT22;4799;50.996;4.754;2023-07-13T08:28:37;22.40;99.90
8862;DHT22;4799;50.996;4.754;2023-07-13T08:31:04;22.40;99.90
8862;DHT22;4799;50.996;4.754;2023-07-13T08:33:30;22.30;99.90
8862;DHT22;4799;50.996;4.754;2023-07-13T08:35:56;22.40;99.90
8862;DHT22;4799;50.996;4.754;2023-07-13T08:38:22;22.50;99.90
8862;DHT22;4799;50.996;4.754;2023-07-13T08:40:53;22.50;99.90
8862;DHT22;4799;50.996;4.754;2023-07-13T08:43:27;22.50;99.90
8862;DHT22;4799;50.996;4.754;2023-07-13T08:46:02;22.50;99.90
8862;DHT22;4799;50.996;4.754;2023-07-13T08:48:36;22.60;99.90
8862;DHT22;4799;50.996;4.754;2023-07-13T08:54:07;23.10;99.90
8862;DHT22;4799;50.996;4.754;2023-07-13T08:56:35;23.10;99.90
8862;DHT22;4799;50.996;4.754;2023-07-13T08:59:10;23.00;99.90
8862;DHT22;4799;50.996;4.754;2023-07-13T09:04:46;23.00;99.90
8862;DHT22;4799;50.996;4.754;2023-07-13T09:07:23;23.10;99.80
8862;DHT22;4799;50.996;4.754;2023-07-13T09:10:03;23.20;99.80
8862;DHT22;4799;50.996;4.754;2023-07-13T09:15:42;23.50;99.10
8862;DHT22;4799;50.996;4.754;2023-07-13T09:18:14;23.70;98.80
8862;DHT22;4799;50.996;4.754;2023-07-13T09:20:42;23.90;97.90
8862;DHT22;4799;50.996;4.754;2023-07-13T09:23:15;24.00;97.60
8862;DHT22;4799;50.996;4.754;2023-07-13T09:25:47;24.20;96.70
8862;DHT22;4799;50.996;4.754;2023-07-13T09:28:23;24.30;96.00
8862;DHT22;4799;50.996;4.754;2023-07-13T09:31:04;24.20;95.10
8862;DHT22;4799;50.996;4.754;2023-07-13T09:33:31;24.30;94.70
8862;DHT22;4799;50.996;4.754;2023-07-13T09:36:00;24.30;93.80
8862;DHT22;4799;50.996;4.754;2023-07-13T09:38:28;24.30;93.50
8862;DHT22;4799;50.996;4.754;2023-07-13T09:43:27;24.40;94.00
8862;DHT22;4799;50.996;4.754;2023-07-13T09:45:55;24.30;93.70
8862;DHT22;4799;50.996;4.754;2023-07-13T09:48:21;24.30;93.50
8862;DHT22;4799;50.996;4.754;2023-07-13T09:50:47;24.30;92.80
8862;DHT22;4799;50.996;4.754;2023-07-13T09:53:18;24.30;92.10
8862;DHT22;4799;50.996;4.754;2023-07-13T09:55:48;24.40;91.80
8862;DHT22;4799;50.996;4.754;2023-07-13T09:58:17;24.70;91.70
8862;DHT22;4799;50.996;4.754;2023-07-13T10:01:01;24.80;92.00
8862;DHT22;4799;50.996;4.754;2023-07-13T10:03:35;24.80;91.00
8862;DHT22;4799;50.996;4.754;2023-07-13T10:06:17;24.80;90.40
8862;DHT22;4799;50.996;4.754;2023-07-13T10:08:45;24.90;87.40
8862;DHT22;4799;50.996;4.754;2023-07-13T10:13:48;24.80;87.00
8862;DHT22;4799;50.996;4.754;2023-07-13T10:16:15;24.70;87.20
8862;DHT22;4799;50.996;4.754;2023-07-13T10:18:48;24.60;87.90
8862;DHT22;4799;50.996;4.754;2023-07-13T10:21:21;24.70;88.30
8862;DHT22;4799;50.996;4.754;2023-07-13T10:23:55;24.60;88.30
8862;DHT22;4799;50.996;4.754;2023-07-13T10:26:31;24.60;89.00
8862;DHT22;4799;50.996;4.754;2023-07-13T10:29:01;24.60;88.70
8862;DHT22;4799;50.996;4.754;2023-07-13T10:31:30;24.70;89.30
8862;DHT22;4799;50.996;4.754;2023-07-13T10:33:57;24.80;89.60
8862;DHT22;4799;50.996;4.754;2023-07-13T10:36:44;24.80;89.80
8862;DHT22;4799;50.996;4.754;2023-07-13T10:39:16;24.70;89.20
8862;DHT22;4799;50.996;4.754;2023-07-13T10:41:44;24.70;86.40
8862;DHT22;4799;50.996;4.754;2023-07-13T10:44:50;24.70;86.70
8862;DHT22;4799;50.996;4.754;2023-07-13T10:47:14;24.70;86.30
8862;DHT22;4799;50.996;4.754;2023-07-13T10:49:41;24.90;85.40
8862;DHT22;4799;50.996;4.754;2023-07-13T10:55:34;25.20;81.90
8862;DHT22;4799;50.996;4.754;2023-07-13T10:58:18;25.30;81.00
8862;DHT22;4799;50.996;4.754;2023-07-13T11:01:01;25.30;80.20
8862;DHT22;4799;50.996;4.754;2023-07-13T11:03:30;25.30;78.90
8862;DHT22;4799;50.996;4.754;2023-07-13T11:06:15;25.30;79.80
8862;DHT22;4799;50.996;4.754;2023-07-13T11:11:37;25.30;78.50
8862;DHT22;4799;50.996;4.754;2023-07-13T11:14:25;25.10;77.90
8862;DHT22;4799;50.996;4.754;2023-07-13T11:16:50;25.20;79.20
8862;DHT22;4799;50.996;4.754;2023-07-13T11:22:11;25.60;77.80
8862;DHT22;4799;50.996;4.754;2023-07-13T11:24:57;25.50;75.20
8862;DHT22;4799;50.996;4.754;2023-07-13T11:27:45;25.50;76.40
8862;DHT22;4799;50.996;4.754;2023-07-13T11:36:13;25.70;77.20
8862;DHT22;4799;50.996;4.754;2023-07-13T11:38:40;25.80;74.50
8862;DHT22;4799;50.996;4.754;2023-07-13T11:41:31;26.00;74.60
8862;DHT22;4799;50.996;4.754;2023-07-13T11:44:12;26.20;74.90
8862;DHT22;4799;50.996;4.754;2023-07-13T11:46:39;26.30;74.50
8862;DHT22;4799;50.996;4.754;2023-07-13T11:49:15;26.40;74.50
8862;DHT22;4799;50.996;4.754;2023-07-13T11:51:41;26.50;72.30
8862;DHT22;4799;50.996;4.754;2023-07-13T11:56:52;26.50;72.30
8862;DHT22;4799;50.996;4.754;2023-07-13T11:59:19;26.70;72.60
8862;DHT22;4799;50.996;4.754;2023-07-13T12:01:52;27.10;73.00
8862;DHT22;4799;50.996;4.754;2023-07-13T12:04:31;27.40;70.50
8862;DHT22;4799;50.996;4.754;2023-07-13T12:07:07;27.60;68.70
8862;DHT22;4799;50.996;4.754;2023-07-13T12:09:34;27.70;68.30
8862;DHT22;4799;50.996;4.754;2023-07-13T12:12:02;27.80;68.40
8862;DHT22;4799;50.996;4.754;2023-07-13T12:14:28;27.60;66.80
8862;DHT22;4799;50.996;4.754;2023-07-13T12:16:55;27.40;67.20
8862;DHT22;4799;50.996;4.754;2023-07-13T12:19:30;27.30;67.80
8862;DHT22;4799;50.996;4.754;2023-07-13T12:21:57;27.20;66.90
8862;DHT22;4799;50.996;4.754;2023-07-13T12:24:24;27.00;67.00
8862;DHT22;4799;50.996;4.754;2023-07-13T12:27:01;26.70;68.10
8862;DHT22;4799;50.996;4.754;2023-07-13T12:29:27;26.40;69.30
8862;DHT22;4799;50.996;4.754;2023-07-13T12:31:53;25.90;87.90
8862;DHT22;4799;50.996;4.754;2023-07-13T12:34:23;24.60;98.20
8862;DHT22;4799;50.996;4.754;2023-07-13T12:36:58;23.40;99.90
8862;DHT22;4799;50.996;4.754;2023-07-13T12:41:53;21.90;99.90
8862;DHT22;4799;50.996;4.754;2023-07-13T12:44:29;21.60;99.90
8862;DHT22;4799;50.996;4.754;2023-07-13T12:47:06;21.20;99.90
8862;DHT22;4799;50.996;4.754;2023-07-13T12:49:41;21.00;99.90
8862;DHT22;4799;50.996;4.754;2023-07-13T12:52:15;20.90;99.90
8862;DHT22;4799;50.996;4.754;2023-07-13T12:54:41;20.80;99.90
8862;DHT22;4799;50.996;4.754;2023-07-13T12:57:13;20.80;99.90
8862;DHT22;4799;50.996;4.754;2023-07-13T12:59:42;20.80;99.90
8862;DHT22;4799;50.996;4.754;2023-07-13T13:02:30;20.90;99.90
8862;DHT22;4799;50.996;4.754;2023-07-13T13:05:00;21.00;99.90
8862;DHT22;4799;50.996;4.754;2023-07-13T13:07:26;21.10;99.90
8862;DHT22;4799;50.996;4.754;2023-07-13T13:09:52;21.30;99.90
8862;DHT22;4799;50.996;4.754;2023-07-13T13:12:22;21.50;99.90
8862;DHT22;4799;50.996;4.754;2023-07-13T13:14:49;21.60;99.90
8862;DHT22;4799;50.996;4.754;2023-07-13T13:17:19;21.60;99.90
8862;DHT22;4799;50.996;4.754;2023-07-13T13:19:46;21.50;99.90
8862;DHT22;4799;50.996;4.754;2023-07-13T13:22:12;21.60;99.90
8862;DHT22;4799;50.996;4.754;2023-07-13T13:24:39;21.70;99.90
8862;DHT22;4799;50.996;4.754;2023-07-13T13:27:05;21.70;99.90
8862;DHT22;4799;50.996;4.754;2023-07-13T13:29:32;21.80;99.90
8862;DHT22;4799;50.996;4.754;2023-07-13T13:31:59;22.00;99.90
8862;DHT22;4799;50.996;4.754;2023-07-13T13:34:25;22.10;99.90
8862;DHT22;4799;50.996;4.754;2023-07-13T13:36:52;22.20;99.90
8862;DHT22;4799;50.996;4.754;2023-07-13T13:39:35;22.30;99.90
8862;DHT22;4799;50.996;4.754;2023-07-13T13:42:02;22.40;99.90
8862;DHT22;4799;50.996;4.754;2023-07-13T13:44:28;22.50;99.90
8862;DHT22;4799;50.996;4.754;2023-07-13T13:46:55;22.70;99.90
8862;DHT22;4799;50.996;4.754;2023-07-13T13:49:24;22.90;99.90
8862;DHT22;4799;50.996;4.754;2023-07-13T13:51:50;23.10;99.90
8862;DHT22;4799;50.996;4.754;2023-07-13T13:54:18;23.30;99.90
8862;DHT22;4799;50.996;4.754;2023-07-13T13:56:45;23.50;99.90
8862;DHT22;4799;50.996;4.754;2023-07-13T13:59:11;23.70;99.90
8862;DHT22;4799;50.996;4.754;2023-07-13T14:01:38;23.80;99.90
8862;DHT22;4799;50.996;4.754;2023-07-13T14:04:04;24.00;99.90
8862;DHT22;4799;50.996;4.754;2023-07-13T14:06:32;24.00;99.90
8862;DHT22;4799;50.996;4.754;2023-07-13T14:09:00;24.00;99.90
8862;DHT22;4799;50.996;4.754;2023-07-13T14:11:26;23.90;99.90
8862;DHT22;4799;50.996;4.754;2023-07-13T14:13:58;23.90;99.90
8862;DHT22;4799;50.996;4.754;2023-07-13T14:16:27;23.90;99.90
8862;DHT22;4799;50.996;4.754;2023-07-13T14:18:55;23.90;99.90
8862;DHT22;4799;50.996;4.754;2023-07-13T14:21:24;24.00;99.90
8862;DHT22;4799;50.996;4.754;2023-07-13T14:23:50;24.20;99.90
8862;DHT22;4799;50.996;4.754;2023-07-13T14:26:26;24.40;99.10
8862;DHT22;4799;50.996;4.754;2023-07-13T14:28:55;24.70;97.70
8862;DHT22;4799;50.996;4.754;2023-07-13T14:31:23;25.20;97.40
8862;DHT22;4799;50.996;4.754;2023-07-13T14:33:49;25.60;95.60
8862;DHT22;4799;50.996;4.754;2023-07-13T14:36:45;25.80;93.60
8862;DHT22;4799;50.996;4.754;2023-07-13T14:39:18;26.00;91.50
8862;DHT22;4799;50.996;4.754;2023-07-13T14:41:45;26.10;89.60
8862;DHT22;4799;50.996;4.754;2023-07-13T14:44:16;26.20;88.30
8862;DHT22;4799;50.996;4.754;2023-07-13T14:46:44;26.30;89.00
8862;DHT22;4799;50.996;4.754;2023-07-13T14:49:21;26.30;88.50
8862;DHT22;4799;50.996;4.754;2023-07-13T14:51:49;26.50;86.30
8862;DHT22;4799;50.996;4.754;2023-07-13T14:54:14;26.60;86.60
8862;DHT22;4799;50.996;4.754;2023-07-13T14:56:40;26.80;85.20
8862;DHT22;4799;50.996;4.754;2023-07-13T14:59:06;26.80;80.70
8862;DHT22;4799;50.996;4.754;2023-07-13T15:01:34;26.70;79.70
8862;DHT22;4799;50.996;4.754;2023-07-13T15:04:01;26.60;78.90
8862;DHT22;4799;50.996;4.754;2023-07-13T15:06:27;26.50;79.00
8862;DHT22;4799;50.996;4.754;2023-07-13T15:08:54;26.50;79.50
8862;DHT22;4799;50.996;4.754;2023-07-13T15:11:21;26.60;79.50
8862;DHT22;4799;50.996;4.754;2023-07-13T15:13:47;26.80;78.30
8862;DHT22;4799;50.996;4.754;2023-07-13T15:16:21;27.00;76.70
8862;DHT22;4799;50.996;4.754;2023-07-13T15:18:47;27.20;75.10
8862;DHT22;4799;50.996;4.754;2023-07-13T15:21:20;27.30;74.00
8862;DHT22;4799;50.996;4.754;2023-07-13T15:23:46;27.20;72.00
8862;DHT22;4799;50.996;4.754;2023-07-13T15:26:13;26.90;72.00
8862;DHT22;4799;50.996;4.754;2023-07-13T15:28:42;26.80;72.30
8862;DHT22;4799;50.996;4.754;2023-07-13T15:33:43;26.70;71.20
8862;DHT22;4799;50.996;4.754;2023-07-13T15:36:09;26.70;72.20
8862;DHT22;4799;50.996;4.754;2023-07-13T15:38:36;26.80;72.90
8862;DHT22;4799;50.996;4.754;2023-07-13T15:41:18;26.90;72.30
8862;DHT22;4799;50.996;4.754;2023-07-13T15:43:46;27.10;72.00
8862;DHT22;4799;50.996;4.754;2023-07-13T15:46:12;27.30;71.10
8862;DHT22;4799;50.996;4.754;2023-07-13T15:48:37;27.40;69.70
8862;DHT22;4799;50.996;4.754;2023-07-13T15:51:05;27.50;68.80
8862;DHT22;4799;50.996;4.754;2023-07-13T15:53:38;27.60;68.10
8862;DHT22;4799;50.996;4.754;2023-07-13T15:56:26;27.50;66.80
8862;DHT22;4799;50.996;4.754;2023-07-13T15:58:52;27.60;65.60
8862;DHT22;4799;50.996;4.754;2023-07-13T16:01:19;27.50;65.60
8862;DHT22;4799;50.996;4.754;2023-07-13T16:03:46;27.60;65.70
8862;DHT22;4799;50.996;4.754;2023-07-13T16:06:27;27.80;65.00
8862;DHT22;4799;50.996;4.754;2023-07-13T16:08:54;27.90;63.90
8862;DHT22;4799;50.996;4.754;2023-07-13T16:11:30;27.90;63.90
8862;DHT22;4799;50.996;4.754;2023-07-13T16:13:58;27.90;61.90
8862;DHT22;4799;50.996;4.754;2023-07-13T16:16:28;28.10;61.10
8862;DHT22;4799;50.996;4.754;2023-07-13T16:18:59;28.30;61.10
8862;DHT22;4799;50.996;4.754;2023-07-13T16:21:31;28.30;60.40
8862;DHT22;4799;50.996;4.754;2023-07-13T16:24:00;28.10;59.60
8862;DHT22;4799;50.996;4.754;2023-07-13T16:26:32;28.00;60.80
8862;DHT22;4799;50.996;4.754;2023-07-13T16:29:20;27.80;61.00
8862;DHT22;4799;50.996;4.754;2023-07-13T16:32:05;27.80;61.60
8862;DHT22;4799;50.996;4.754;2023-07-13T16:34:32;27.80;62.00
8862;DHT22;4799;50.996;4.754;2023-07-13T16:36:58;27.70;62.20
8862;DHT22;4799;50.996;4.754;2023-07-13T16:39:26;27.50;62.40
8862;DHT22;4799;50.996;4.754;2023-07-13T16:41:59;27.50;62.60
8862;DHT22;4799;50.996;4.754;2023-07-13T16:44:25;28.00;62.30
8862;DHT22;4799;50.996;4.754;2023-07-13T16:46:54;28.60;61.30